Etusivu
METAR-TAF:

METAR-TAF

Lentoasemat :

Lewiston-Nez Perce County Airport

Lewiston, Idaho, Yhdysvallat

Leveyspiiri: 46-22-29N, Pituuspiiri: 117-00-52W, korkeus merenpinnasta: 438 m

Tämänhetkinen sää

Tämä raportti tehtiin 49 minuuttia sitten, kello 00.56 UTC
Tuuli 10 kn etelästä
Lämpötila 8°C
Kosteus 49%
Ilmanpaine 1025 hPa
Näkyvyys: 16.1 km
Hajonneita pilviä 5500 ft:n korkeudessa

METAR: KLWS 010056Z 18010KT 10SM BKN055 08/M02 A3026 RMK AO2 SLP259 T00781017

Aika: 17:45 (01:45 UTC)

Sääennuste

Tämä raportti tehtiin 2 tuntia ja 11 minuuttia sitten, kello 23.34 UTC
Ennuste voimassa 01. päivästä klo 00 UTC - 01. päivään klo 24 UTC
Tuuli 12 kn etelästä/kaakosta
Näkyvyys: 10 km
Hajonneita pilviä 6000 ft:n korkeudessa
From 01. päivästä klo 0200 UTC
Tuuli 10 kn etelästä/kaakosta
Näkyvyys: 10 km
Hajanaisia pilviä 9000 ft:n korkeudessa

TAF: KLWS 282334Z 0100/0124 15012KT P6SM BKN060 FM010200 16010KT P6SM SCT090

Säähavainnot ja -ennusteet yli 4000 lentoasemalta (METAR- ja TAF-raportit).

Käytössä olevat sääasemat on merkitty karttaan keltaisilla ja punaisilla pisteillä.

Aseta hiiri pisteen päälle nähdäksesi sääaseman nimen.

Klikkaa sitten nähdäksesi säähavainnot ja -ennusteet.

Kartan vaihtaminen: klikkaa mustalla rastilla varustettuja vihreitä pisteitä, niin voit zoomata sisään; viivalla varustettua vihreää pistettä, niin voit zoomata ulos tai vihreitä nuolia, niin pääset viereisille kartoille.


METAR-TAF: